Friday, January 18, 2019, 3:23 AM EST
Back to Local

KGNR, Greenville

Location: Greenville, ME, United States Lat: 45.467
Local Time: 3:23 AM EST ( 8:23 GMT) Lon: -69.583
Time Zone: US/Eastern Elev: 1400 ft

Show me the last for .
Show Coded

Time T Td Feel RH Dir Speed Gust Alt SLP Vis Weather Sky Remarks
2019-01-18 02:56 3 -10 -9 53 150° 7 - 30.12 30.23 0 None
2019-01-18 01:56 3 -10 -12 53 150° 9 - 30.13 30.24 0 None
2019-01-18 00:56 2 -10 -13 56 130° 9 - 30.13 30.25 0 6-hr Min Temp (1am): -2.0°F
6-hr Max Temp (1am): 3.0°F
2019-01-17 23:56 2 -11 -11 53 140° 7 - 30.16 30.27 0 24-hr Min Temp (12am): -6.0°F
24-hr Max Temp (12am): 5.0°F
2019-01-17 22:56 2 -11 -9 53 140° 6 - 30.19 30.31 0 None
2019-01-17 21:56 1 -11 - 55 - Calm - 30.20 30.32 0 None
2019-01-17 20:56 0 -12 - 56 - Calm - 30.19 30.32 0 None
2019-01-17 19:56 0 -13 -8 53 330° 3 - 30.20 30.32 0 None
2019-01-17 18:56 1 -13 -7 50 310° 3 - 30.21 30.33 0 6-hr Min Temp (7pm): -0.0°F
6-hr Max Temp (7pm): 5.0°F
2019-01-17 17:56 2 -13 - 48 - Calm - 30.19 30.31 0 None
2019-01-17 16:56 1 -12 -7 53 40° 3 - 30.18 30.31 0 None
2019-01-17 15:56 3 -12 -13 48 320° 12 - 30.17 30.29 0 None
2019-01-17 14:56 5 -13 -9 42 330° 9 - 30.17 30.29 0 None
2019-01-17 13:56 4 -12 -17 46 310° 15 20 30.17 30.29 0 None
2019-01-17 12:56 2 -14 -21 45 300° 14 24 30.16 30.28 0 Peak wind: 29 mph (26 kts) from 320° at 19 min
6-hr Min Temp (1pm): -6.0°F
6-hr Max Temp (1pm): 1.9°F
2019-01-17 11:56 2 -15 -21 43 310° 18 24 30.18 30.30 0 None
2019-01-17 10:56 -1 -16 -21 47 330° 16 - 30.20 30.32 0 Pressure falling rapidly
2019-01-17 09:56 -3 -17 -18 49 330° 8 - 30.22 30.34 0 None
2019-01-17 08:56 -4 -16 -29 54 310° 10 23 30.20 30.31 0 None
2019-01-17 07:56 -6 -17 -28 57 320° 16 - 30.17 30.28 0 None
2019-01-17 06:56 -6 -15 -33 63 310° 17 26 30.13 30.23 0 24-hr Precip Total (7am): 0.02"
6-hr Min Temp (7am): -6.0°F
6-hr Max Temp (7am): -0.0°F
2019-01-17 05:56 -5 -15 -31 61 310° 17 25 30.10 30.19 0 None
2019-01-17 04:56 -4 -14 -30 60 300° 14 25 30.07 30.17 0 Peak wind: 29 mph (26 kts) from 310° at 01 min
2019-01-17 03:56 -3 -13 -29 60 310° 17 26 30.05 30.14 0 None

Support USWX by starting your Amazon purchase here.